Time;durP1;ratioP1;P1;durP2;ratioP2;P2;SDS_P1;SDS_P2;PMS_P1;PMS_P2;Temp;Humidity;BMP_temperature;BMP_pressure;BME280_temperature;BME280_humidity;BME280_pressure;Samples;Min_cycle;Max_cycle;Signal;HPM_P1;HPM_P2
2022/01/16 00:00:40;;;;;;;29.27;26.25;;;7.30;99.90;;;;;;5027947;28;20033;-75
2022/01/16 00:05:51;;;;;;;28.73;25.88;;;7.40;99.90;;;;;;5026938;28;20035;-75
2022/01/16 00:08:17;;;;;;;31.23;28.13;;;7.50;99.90;;;;;;5026550;28;20462;-75
2022/01/16 00:10:43;;;;;;;31.05;27.75;;;7.60;99.90;;;;;;5026642;28;20037;-75
2022/01/16 00:13:08;;;;;;;31.35;28.27;;;7.60;99.90;;;;;;5026532;28;20057;-75
2022/01/16 00:15:34;;;;;;;31.98;28.65;;;7.70;99.90;;;;;;5027420;28;20038;-75
2022/01/16 00:20:29;;;;;;;37.45;30.27;;;7.80;99.90;;;;;;5027688;28;20112;-75
2022/01/16 00:22:55;;;;;;;36.00;29.63;;;7.80;99.90;;;;;;5026084;28;20543;-75
2022/01/16 00:25:21;;;;;;;32.20;29.13;;;7.90;99.90;;;;;;5027596;28;20051;-75
2022/01/16 00:27:47;;;;;;;32.42;29.08;;;7.90;99.90;;;;;;5026298;28;20108;-75
2022/01/16 00:30:14;;;;;;;32.17;27.95;;;7.90;99.90;;;;;;5026303;28;20048;-75
2022/01/16 00:32:40;;;;;;;33.80;30.10;;;8.00;99.90;;;;;;5027705;28;20392;-75
2022/01/16 00:35:07;;;;;;;32.20;28.85;;;8.00;99.90;;;;;;5009839;28;20064;-74
2022/01/16 00:37:33;;;;;;;32.67;28.77;;;7.90;99.90;;;;;;5027238;28;20026;-74
2022/01/16 00:39:58;;;;;;;34.10;28.33;;;8.00;99.90;;;;;;5027449;28;20026;-75
2022/01/16 00:42:24;;;;;;;32.20;28.85;;;7.90;99.90;;;;;;5025940;28;20254;-75
2022/01/16 00:44:50;;;;;;;31.30;28.38;;;7.90;99.90;;;;;;5026111;28;20053;-75
2022/01/16 00:47:17;;;;;;;32.05;28.35;;;8.00;99.90;;;;;;5026364;28;20030;-75
2022/01/16 00:49:43;;;;;;;30.65;27.65;;;7.90;99.90;;;;;;5026330;28;20026;-75
2022/01/16 00:52:09;;;;;;;;;;;7.90;99.90;;;;;;5026657;28;20531;-75
2022/01/16 00:54:38;;;;;;;28.73;25.90;;;7.90;99.90;;;;;;5026179;28;20027;-75
2022/01/16 00:57:04;;;;;;;28.95;26.30;;;7.90;99.90;;;;;;5027554;28;20034;-75
2022/01/16 00:59:30;;;;;;;34.00;30.45;;;7.90;99.90;;;;;;5028398;28;20110;-74
2022/01/16 01:01:56;;;;;;;29.55;26.63;;;7.90;99.90;;;;;;5031605;28;20057;-74
2022/01/16 01:04:22;;;;;;;29.80;26.83;;;7.90;99.90;;;;;;5013724;28;20048;-75
2022/01/16 01:06:50;;;;;;;30.55;27.40;;;7.90;99.90;;;;;;5029997;28;20167;-74
2022/01/16 01:09:16;;;;;;;29.20;26.45;;;7.90;99.90;;;;;;5013848;28;20030;-75
2022/01/16 01:11:45;;;;;;;28.88;25.90;;;7.90;99.90;;;;;;5031208;28;20037;-75
2022/01/16 01:16:52;;;;;;;30.45;27.55;;;7.90;99.90;;;;;;5030535;28;20487;-75
2022/01/16 01:19:20;;;;;;;28.77;26.10;;;7.90;99.90;;;;;;5030437;28;20021;-74
2022/01/16 01:21:47;;;;;;;28.63;25.90;;;7.90;99.90;;;;;;5031223;28;20051;-75
2022/01/16 01:24:12;;;;;;;29.10;26.23;;;7.90;99.90;;;;;;5031013;28;20575;-75
2022/01/16 01:26:48;;;;;;;30.98;26.98;;;7.80;99.90;;;;;;5031029;28;20033;-74
2022/01/16 01:29:18;;;;;;;28.60;25.90;;;7.80;99.90;;;;;;5029445;28;20568;-75
2022/01/16 01:31:43;;;;;;;29.85;26.50;;;7.80;99.90;;;;;;5029301;28;20124;-75
2022/01/16 01:34:09;;;;;;;29.25;26.45;;;7.80;99.90;;;;;;5029620;28;20105;-75
2022/01/16 01:36:35;;;;;;;30.63;27.30;;;7.80;99.90;;;;;;5029144;28;20037;-74
2022/01/16 01:39:00;;;;;;;29.42;26.73;;;7.80;99.90;;;;;;5012687;28;20047;-74
2022/01/16 01:41:28;;;;;;;28.70;26.02;;;7.80;99.90;;;;;;5029187;28;20061;-75
2022/01/16 01:52:07;;;;;;;29.42;26.75;;;7.80;99.90;;;;;;5030695;28;20048;-75
2022/01/16 01:54:33;;;;;;;29.90;27.15;;;7.70;99.90;;;;;;5030174;28;20029;-75
2022/01/16 01:57:00;;;;;;;30.48;27.70;;;7.60;99.90;;;;;;5029010;28;20098;-74
2022/01/16 01:59:27;;;;;;;31.10;27.77;;;7.60;99.90;;;;;;5029056;28;20139;-75
2022/01/16 02:01:52;;;;;;;;;;;7.40;99.90;;;;;;5030682;28;20460;-75
2022/01/16 02:04:18;;;;;;;32.63;29.40;;;7.30;99.90;;;;;;5030062;28;19917;-75
2022/01/16 02:06:44;;;;;;;35.22;31.70;;;7.20;99.90;;;;;;5028849;28;20025;-75
2022/01/16 02:09:10;;;;;;;34.58;31.33;;;7.10;99.90;;;;;;5030042;28;20029;-75
2022/01/16 02:11:36;;;;;;;34.47;31.40;;;7.00;99.90;;;;;;5027964;28;20494;-75
2022/01/16 02:27:59;;;;;;;35.05;32.08;;;6.60;99.90;;;;;;5030098;28;20117;-75
2022/01/16 02:35:43;;;;;;;37.08;33.83;;;6.40;99.90;;;;;;5029834;28;20073;-75
2022/01/16 02:38:09;;;;;;;36.95;33.63;;;6.40;99.90;;;;;;5028141;28;20033;-75
2022/01/16 02:40:38;;;;;;;;;;;6.40;99.90;;;;;;5029584;28;20099;-76
2022/01/16 02:43:05;;;;;;;38.03;34.45;;;6.40;99.90;;;;;;5027398;28;19952;-76
2022/01/16 02:45:32;;;;;;;36.88;33.90;;;6.40;99.90;;;;;;5027730;28;20383;-75
2022/01/16 02:48:01;;;;;;;37.63;34.38;;;6.50;99.90;;;;;;5028828;28;20032;-75
2022/01/16 02:50:28;;;;;;;42.22;36.03;;;6.50;99.90;;;;;;5028513;28;20371;-76
2022/01/16 02:52:54;;;;;;;37.80;34.38;;;6.50;99.90;;;;;;5027851;28;20128;-76
2022/01/16 02:55:21;;;;;;;37.90;34.08;;;6.60;99.90;;;;;;5029018;28;20113;-75
2022/01/16 02:57:53;;;;;;;36.85;33.42;;;6.70;99.90;;;;;;5028871;28;20487;-75
2022/01/16 03:00:19;;;;;;;35.83;32.55;;;6.80;99.90;;;;;;5028958;28;20076;-75
2022/01/16 03:02:46;;;;;;;33.08;29.98;;;6.80;99.90;;;;;;5028875;28;20507;-75
2022/01/16 03:05:13;;;;;;;35.50;31.98;;;6.90;99.90;;;;;;5028372;28;20032;-76
2022/01/16 03:07:39;;;;;;;33.30;30.15;;;7.00;99.90;;;;;;5028776;28;20041;-75
2022/01/16 03:12:52;;;;;;;33.60;30.42;;;7.00;99.90;;;;;;5029320;28;20395;-75
2022/01/16 03:15:19;;;;;;;35.80;30.13;;;7.00;99.90;;;;;;5027521;28;20025;-75
2022/01/16 03:23:08;;;;;;;33.05;29.95;;;7.00;99.90;;;;;;5028005;28;20060;-75
2022/01/16 03:25:33;;;;;;;33.00;29.92;;;7.00;99.90;;;;;;5010978;28;20472;-76
2022/01/16 03:27:59;;;;;;;34.30;31.33;;;7.00;99.90;;;;;;5027371;28;20033;-75
2022/01/16 03:30:25;;;;;;;33.20;30.27;;;7.00;99.90;;;;;;5028216;28;20034;-75
2022/01/16 03:32:51;;;;;;;34.50;30.98;;;7.00;99.90;;;;;;5027232;28;20191;-75
2022/01/16 03:35:16;;;;;;;34.88;31.50;;;6.90;99.90;;;;;;5028574;28;20038;-75
2022/01/16 03:37:42;;;;;;;34.42;31.52;;;6.90;99.90;;;;;;5027170;28;20037;-75
2022/01/16 03:40:11;;;;;;;36.63;32.42;;;6.90;99.90;;;;;;5010860;28;20101;-75
2022/01/16 03:42:38;;;;;;;35.35;31.90;;;6.80;99.90;;;;;;5027004;28;20037;-75
2022/01/16 03:45:05;;;;;;;35.72;31.65;;;6.80;99.90;;;;;;5026956;28;20100;-76
2022/01/16 03:47:31;;;;;;;36.50;32.85;;;6.80;99.90;;;;;;5010707;28;20021;-75
2022/01/16 03:49:57;;;;;;;36.10;32.70;;;6.80;99.90;;;;;;5010213;28;20136;-75
2022/01/16 03:52:23;;;;;;;36.60;32.88;;;6.80;99.90;;;;;;5010494;28;20092;-76
2022/01/16 03:54:49;;;;;;;35.80;32.35;;;6.80;99.90;;;;;;5026521;28;20048;-75
2022/01/16 03:57:15;;;;;;;35.30;32.15;;;6.90;99.90;;;;;;5027786;28;20042;-75
2022/01/16 03:59:40;;;;;;;35.47;31.45;;;6.90;99.90;;;;;;5027379;28;20072;-75
2022/01/16 04:02:06;;;;;;;33.53;30.60;;;7.00;99.90;;;;;;5027217;28;20040;-76
2022/01/16 04:04:32;;;;;;;33.50;30.60;;;7.00;99.90;;;;;;5027207;28;20055;-76
2022/01/16 04:06:59;;;;;;;36.00;32.13;;;7.10;99.90;;;;;;5026418;28;20025;-75
2022/01/16 04:09:26;;;;;;;34.90;31.30;;;7.10;99.90;;;;;;5026692;28;20046;-75
2022/01/16 04:11:55;;;;;;;34.72;31.45;;;7.10;99.90;;;;;;5028061;28;20048;-75
2022/01/16 04:15:31;;;;;;;35.42;32.45;;;7.10;99.90;;;;;;5026328;28;20103;-75
2022/01/16 04:17:07;;;;;;;36.17;32.58;;;7.00;99.90;;;;;;5025964;28;20108;-76
2022/01/16 04:19:32;;;;;;;36.25;32.88;;;7.00;99.90;;;;;;5027867;28;20101;-76
2022/01/16 04:21:58;;;;;;;37.97;33.67;;;7.00;99.90;;;;;;5026537;28;20472;-75
2022/01/16 04:24:24;;;;;;;34.75;31.27;;;7.00;99.90;;;;;;5026692;28;20030;-75
2022/01/16 04:26:49;;;;;;;35.13;31.73;;;7.00;99.90;;;;;;5026162;28;20033;-75
2022/01/16 04:29:15;;;;;;;33.97;30.92;;;7.00;99.90;;;;;;5026283;28;20025;-75
2022/01/16 04:31:41;;;;;;;35.47;31.85;;;7.00;99.90;;;;;;5027724;28;20030;-75
2022/01/16 04:34:07;;;;;;;35.40;31.60;;;7.10;99.90;;;;;;5027283;28;20029;-75
2022/01/16 04:36:32;;;;;;;33.70;30.15;;;7.10;99.90;;;;;;5027522;28;20463;-75
2022/01/16 04:38:58;;;;;;;34.58;31.17;;;7.10;99.90;;;;;;5027652;28;20028;-75
2022/01/16 04:44:08;;;;;;;35.22;31.63;;;7.20;99.90;;;;;;5027884;28;20071;-75
2022/01/16 04:46:34;;;;;;;32.78;29.67;;;7.20;99.90;;;;;;5026135;28;20444;-75
2022/01/16 04:49:02;;;;;;;35.60;31.92;;;7.20;99.90;;;;;;5026343;28;20038;-76
2022/01/16 04:51:30;;;;;;;34.10;30.73;;;7.20;99.90;;;;;;5026113;28;20025;-75
2022/01/16 04:53:56;;;;;;;33.22;29.88;;;7.20;99.90;;;;;;5027425;28;20029;-75
2022/01/16 04:56:22;;;;;;;33.20;29.67;;;7.30;99.90;;;;;;5025912;28;20060;-74
2022/01/16 04:58:49;;;;;;;34.30;30.52;;;7.30;99.90;;;;;;5027433;28;20057;-75
2022/01/16 05:01:16;;;;;;;33.50;30.40;;;7.30;99.90;;;;;;5027378;28;20228;-75
2022/01/16 05:03:42;;;;;;;32.55;29.38;;;7.30;99.90;;;;;;5027382;28;20538;-75
2022/01/16 05:06:10;;;;;;;34.70;30.30;;;7.40;99.90;;;;;;5027335;28;20021;-75
2022/01/16 05:08:36;;;;;;;34.45;30.70;;;7.40;99.90;;;;;;5009984;28;20480;-75
2022/01/16 05:11:02;;;;;;;32.55;29.30;;;7.40;99.90;;;;;;5026122;28;20086;-75
2022/01/16 05:19:14;;;;;;;;;;;7.50;99.90;;;;;;5004749;28;20125;-75
2022/01/16 05:21:42;;;;;;;33.30;30.10;;;7.50;99.90;;;;;;5026755;28;19943;-75
2022/01/16 05:24:10;;;;;;;32.10;29.00;;;7.50;99.90;;;;;;5026765;28;20032;-75
2022/01/16 05:26:42;;;;;;;33.35;30.13;;;7.50;99.90;;;;;;5025234;28;20085;-75
2022/01/16 05:29:10;;;;;;;33.30;30.02;;;7.50;99.90;;;;;;5026735;28;20021;-75
2022/01/16 05:31:36;;;;;;;33.67;30.48;;;7.50;99.90;;;;;;5026735;28;20025;-76
2022/01/16 05:34:01;;;;;;;32.97;29.50;;;7.50;99.90;;;;;;5027107;28;20075;-75
2022/01/16 05:36:27;;;;;;;32.40;29.75;;;7.50;99.90;;;;;;5027180;28;20026;-76
2022/01/16 05:38:53;;;;;;;32.90;29.77;;;7.50;99.90;;;;;;5027174;28;20040;-76
2022/01/16 05:41:19;;;;;;;34.40;31.08;;;7.60;99.90;;;;;;5026995;28;20026;-75
2022/01/16 05:43:49;;;;;;;34.08;30.63;;;7.60;99.90;;;;;;5027128;28;20026;-75
2022/01/16 05:46:15;;;;;;;36.47;33.03;;;7.60;99.90;;;;;;5027228;28;20055;-75
2022/01/16 05:48:41;;;;;;;;;;;7.60;99.90;;;;;;5031144;28;20104;-76
2022/01/16 05:51:08;;;;;;;34.67;31.75;;;7.60;99.90;;;;;;5029466;28;19916;-76
2022/01/16 05:53:35;;;;;;;37.88;34.08;;;7.60;99.90;;;;;;5012900;28;20030;-76
2022/01/16 05:56:00;;;;;;;;;;;7.70;99.90;;;;;;5031002;28;20116;-76
2022/01/16 05:58:26;;;;;;;36.70;33.13;;;7.70;99.90;;;;;;5030364;28;20018;-76
2022/01/16 06:00:52;;;;;;;38.67;35.22;;;7.70;99.90;;;;;;5030487;28;20022;-75
2022/01/16 06:03:19;;;;;;;36.72;33.63;;;7.70;99.90;;;;;;5029096;28;20403;-75
2022/01/16 06:05:45;;;;;;;40.17;36.10;;;7.70;99.90;;;;;;5028929;28;20037;-75
2022/01/16 06:08:12;;;;;;;37.50;34.15;;;7.70;99.90;;;;;;5029037;28;20476;-75
2022/01/16 06:10:38;;;;;;;35.67;32.53;;;7.80;99.90;;;;;;5028874;28;20033;-75
2022/01/16 06:13:05;;;;;;;38.28;34.78;;;7.80;99.90;;;;;;5030133;28;20040;-75
2022/01/16 06:15:31;;;;;;;35.70;32.35;;;7.80;99.90;;;;;;5030030;28;20123;-76
2022/01/16 06:17:57;;;;;;;36.80;33.28;;;7.90;99.90;;;;;;5028703;28;20053;-75
2022/01/16 06:20:23;;;;;;;36.70;32.85;;;7.90;99.90;;;;;;5028743;28;20038;-76
2022/01/16 06:22:49;;;;;;;34.22;31.27;;;7.90;99.90;;;;;;5029947;28;20476;-75
2022/01/16 06:25:15;;;;;;;34.85;31.80;;;7.90;99.90;;;;;;5011953;28;20080;-75
2022/01/16 06:27:41;;;;;;;34.70;31.40;;;7.90;99.90;;;;;;5029885;28;20037;-75
2022/01/16 06:30:09;;;;;;;37.75;32.50;;;8.00;99.90;;;;;;5028583;28;20034;-75
2022/01/16 06:32:35;;;;;;;34.72;31.33;;;8.00;99.90;;;;;;5028479;28;20060;-76
2022/01/16 06:35:01;;;;;;;35.40;31.98;;;8.00;99.90;;;;;;5028422;28;20079;-76
2022/01/16 06:37:27;;;;;;;38.20;34.55;;;8.00;99.90;;;;;;5028326;28;20037;-75
2022/01/16 06:39:53;;;;;;;33.90;30.38;;;8.00;99.90;;;;;;5011805;28;20498;-75
2022/01/16 06:42:19;;;;;;;36.78;32.58;;;8.10;99.90;;;;;;5029352;28;20049;-76
2022/01/16 06:44:44;;;;;;;36.55;32.90;;;8.10;99.90;;;;;;5028155;28;20071;-75
2022/01/16 06:47:10;;;;;;;35.40;31.70;;;8.10;99.90;;;;;;5029469;28;20300;-75
2022/01/16 06:49:36;;;;;;;34.10;30.73;;;8.10;99.90;;;;;;5028008;28;20395;-75
2022/01/16 06:52:02;;;;;;;36.45;32.78;;;8.10;99.90;;;;;;5029314;28;20033;-76
2022/01/16 06:54:28;;;;;;;34.90;31.80;;;8.20;99.90;;;;;;5028246;28;20033;-76
2022/01/16 06:56:54;;;;;;;34.25;31.33;;;8.20;99.90;;;;;;5028927;28;20030;-76
2022/01/16 06:59:20;;;;;;;34.88;31.45;;;8.30;99.90;;;;;;5029330;28;20055;-76
2022/01/16 07:01:45;;;;;;;36.30;33.10;;;8.30;99.90;;;;;;5011447;28;20032;-75
2022/01/16 07:04:11;;;;;;;33.20;30.45;;;8.30;99.90;;;;;;5027867;28;20029;-76
2022/01/16 07:06:37;;;;;;;34.72;31.35;;;8.40;99.90;;;;;;5027570;28;20033;-75
2022/01/16 07:09:03;;;;;;;33.42;30.80;;;8.40;99.90;;;;;;5029443;28;20028;-76
2022/01/16 07:11:29;;;;;;;32.83;30.00;;;8.40;99.90;;;;;;5027840;28;20053;-76
2022/01/16 07:13:54;;;;;;;34.55;31.23;;;8.50;99.90;;;;;;5027630;28;20029;-75
2022/01/16 07:16:21;;;;;;;32.45;29.45;;;8.50;99.90;;;;;;5011511;28;20036;-75
2022/01/16 07:18:47;;;;;;;34.13;30.77;;;8.50;99.90;;;;;;5027533;28;20391;-76
2022/01/16 07:21:13;;;;;;;34.10;31.17;;;8.60;99.90;;;;;;5028982;28;20032;-76
2022/01/16 07:23:43;;;;;;;;;;;8.60;99.90;;;;;;5028274;28;20419;-75
2022/01/16 07:26:09;;;;;;;31.52;28.70;;;8.60;99.90;;;;;;5027396;28;19908;-75
2022/01/16 07:28:35;;;;;;;30.27;27.58;;;8.60;99.90;;;;;;5028993;28;20218;-76
2022/01/16 07:31:00;;;;;;;29.58;27.23;;;8.60;99.90;;;;;;5027432;28;20048;-75
2022/01/16 07:33:26;;;;;;;30.13;27.30;;;8.60;99.90;;;;;;5028760;28;20060;-75
2022/01/16 07:35:52;;;;;;;29.58;27.15;;;8.70;99.90;;;;;;5027430;28;20064;-75
2022/01/16 07:38:18;;;;;;;29.40;26.98;;;8.70;99.90;;;;;;5027367;28;20032;-76
2022/01/16 07:40:43;;;;;;;26.77;24.63;;;8.70;99.90;;;;;;5028462;28;20030;-75
2022/01/16 07:43:09;;;;;;;26.35;24.08;;;8.70;99.90;;;;;;5010571;28;20041;-76
2022/01/16 07:45:37;;;;;;;24.13;22.15;;;8.70;99.90;;;;;;5028519;28;20391;-75
2022/01/16 07:48:05;;;;;;;23.45;21.75;;;8.70;99.90;;;;;;5026909;28;20029;-74
2022/01/16 07:50:31;;;;;;;21.77;20.10;;;8.70;99.90;;;;;;5028283;28;20021;-75
2022/01/16 07:52:57;;;;;;;22.00;20.27;;;8.70;99.90;;;;;;5028332;28;20032;-76
2022/01/16 07:55:25;;;;;;;21.45;19.92;;;8.70;99.90;;;;;;5027724;28;20029;-76
2022/01/16 07:57:52;;;;;;;21.73;20.05;;;8.60;99.90;;;;;;5025739;28;20472;-75
2022/01/16 08:00:19;;;;;;;21.52;19.92;;;8.60;99.90;;;;;;5027644;28;20025;-75
2022/01/16 08:02:45;;;;;;;20.92;18.73;;;8.60;99.90;;;;;;5027970;28;20036;-75
2022/01/16 08:05:10;;;;;;;21.67;19.95;;;8.50;99.90;;;;;;5026445;28;20395;-75
2022/01/16 08:07:36;;;;;;;19.00;17.70;;;8.50;99.90;;;;;;5028152;28;20096;-75
2022/01/16 08:10:02;;;;;;;20.33;18.60;;;8.50;99.90;;;;;;5025906;28;20030;-75
2022/01/16 08:12:28;;;;;;;19.75;18.20;;;8.50;99.90;;;;;;5027653;28;20107;-75
2022/01/16 08:14:54;;;;;;;18.90;17.17;;;8.50;99.90;;;;;;5026391;28;20079;-75
2022/01/16 08:17:20;;;;;;;17.73;16.13;;;8.50;99.90;;;;;;5027795;28;20433;-75
2022/01/16 08:19:46;;;;;;;18.05;16.83;;;8.50;99.90;;;;;;5027815;28;20021;-75
2022/01/16 08:22:11;;;;;;;18.08;16.67;;;8.50;99.90;;;;;;5027707;28;20030;-75
2022/01/16 08:24:38;;;;;;;18.98;17.60;;;8.50;99.90;;;;;;5026144;28;20056;-75
2022/01/16 08:27:03;;;;;;;;;;;8.50;99.90;;;;;;5027902;28;20041;-75
2022/01/16 08:29:29;;;;;;;19.80;18.50;;;8.40;99.90;;;;;;5009700;28;19909;-75
2022/01/16 08:31:55;;;;;;;20.30;18.45;;;8.40;99.90;;;;;;5025967;28;20156;-75
2022/01/16 08:34:21;;;;;;;19.13;17.80;;;8.40;99.90;;;;;;5026489;28;20374;-75
2022/01/16 08:36:46;;;;;;;19.80;17.77;;;8.50;99.90;;;;;;5026082;28;20155;-75
2022/01/16 08:39:14;;;;;;;19.85;18.10;;;8.50;99.90;;;;;;5026073;28;20037;-75
2022/01/16 08:41:40;;;;;;;17.75;16.10;;;8.50;99.90;;;;;;5027302;28;20055;-75
2022/01/16 08:44:06;;;;;;;18.50;16.75;;;8.50;99.90;;;;;;5027983;28;20021;-75
2022/01/16 08:46:32;;;;;;;20.45;17.42;;;8.50;99.90;;;;;;5027381;28;20109;-75
2022/01/16 08:48:58;;;;;;;;;;;8.50;99.90;;;;;;5027857;28;20021;-75
2022/01/16 08:51:24;;;;;;;18.90;17.10;;;8.60;99.90;;;;;;5027490;28;19919;-75
2022/01/16 08:53:49;;;;;;;18.40;16.95;;;8.60;99.90;;;;;;5025782;28;20100;-75
2022/01/16 08:56:15;;;;;;;20.23;18.23;;;8.60;99.90;;;;;;5009133;28;20496;-75
2022/01/16 08:58:42;;;;;;;19.23;17.40;;;8.60;99.90;;;;;;5026976;28;20041;-76
2022/01/16 09:01:07;;;;;;;;;;;8.70;99.90;;;;;;5027572;28;20053;-76
2022/01/16 09:03:34;;;;;;;17.80;16.00;;;8.70;99.90;;;;;;5027141;28;20359;-75
2022/01/16 09:06:00;;;;;;;17.23;15.82;;;8.70;99.90;;;;;;5027315;28;20021;-76
2022/01/16 09:08:25;;;;;;;17.15;15.80;;;8.70;99.90;;;;;;5025791;28;20049;-76
2022/01/16 09:10:51;;;;;;;16.65;15.20;;;8.70;99.90;;;;;;5025772;28;20037;-76
2022/01/16 09:13:17;;;;;;;16.88;15.15;;;8.70;99.90;;;;;;5024954;28;20042;-76
2022/01/16 09:15:47;;;;;;;18.42;16.65;;;8.70;99.90;;;;;;5026979;28;20030;-75
2022/01/16 09:18:13;;;;;;;16.75;15.20;;;8.70;99.90;;;;;;5025686;28;20380;-76
2022/01/16 09:20:39;;;;;;;15.90;14.35;;;8.80;99.90;;;;;;5026985;28;20021;-76
2022/01/16 09:23:05;;;;;;;15.75;14.27;;;8.80;99.90;;;;;;5030409;28;20037;-75
2022/01/16 09:25:31;;;;;;;15.45;13.65;;;8.80;99.90;;;;;;5030639;28;20464;-75
2022/01/16 09:27:57;;;;;;;15.20;13.50;;;8.80;99.90;;;;;;5029696;28;20049;-75
2022/01/16 09:30:23;;;;;;;14.20;12.75;;;8.80;99.90;;;;;;5029277;28;20025;-76
2022/01/16 09:32:49;;;;;;;14.70;13.40;;;8.80;99.90;;;;;;5028953;28;20110;-76
2022/01/16 09:35:15;;;;;;;;;;;8.80;99.90;;;;;;5029295;28;20033;-76
2022/01/16 09:37:42;;;;;;;15.63;13.70;;;8.90;99.90;;;;;;5030476;28;19967;-75
2022/01/16 09:40:09;;;;;;;16.88;12.57;;;8.80;99.90;;;;;;5029152;28;20022;-75
2022/01/16 09:42:36;;;;;;;14.77;13.45;;;8.70;99.90;;;;;;5028719;28;20111;-75
2022/01/16 09:45:04;;;;;;;15.02;13.45;;;8.60;99.90;;;;;;5030249;28;20432;-75
2022/01/16 09:47:30;;;;;;;13.82;12.70;;;8.50;99.90;;;;;;5030041;28;20025;-75
2022/01/16 09:49:56;;;;;;;15.90;14.02;;;8.40;99.90;;;;;;5029835;28;20036;-75
2022/01/16 09:52:22;;;;;;;14.82;13.30;;;8.30;99.90;;;;;;5028742;28;20037;-75
2022/01/16 09:54:47;;;;;;;18.08;12.52;;;8.30;99.90;;;;;;5028531;28;20510;-75
2022/01/16 09:57:14;;;;;;;14.63;12.65;;;8.20;99.90;;;;;;5028630;28;20046;-75
2022/01/16 09:59:40;;;;;;;13.70;12.25;;;8.30;99.90;;;;;;5028841;28;20033;-75
2022/01/16 10:02:06;;;;;;;17.13;11.23;;;8.30;99.90;;;;;;5030025;28;20116;-75
2022/01/16 10:04:41;;;;;;;12.00;10.90;;;8.40;99.90;;;;;;5030155;28;20021;-74
2022/01/16 10:07:12;;;;;;;19.52;10.43;;;8.40;99.90;;;;;;5029932;28;20033;-75
2022/01/16 10:09:39;;;;;;;16.88;9.45;;;8.50;99.90;;;;;;5029796;28;20021;-75
2022/01/16 10:12:15;;;;;;;12.95;10.10;;;8.60;99.90;;;;;;5029965;28;20105;-75
2022/01/16 10:14:52;;;;;;;11.52;10.30;;;8.70;99.90;;;;;;5028484;28;20025;-74
2022/01/16 10:17:21;;;;;;;15.25;12.05;;;8.70;99.90;;;;;;5029617;28;20549;-75
2022/01/16 10:20:07;;;;;;;11.50;10.32;;;8.80;99.90;;;;;;5027825;28;20056;-75
2022/01/16 10:22:57;;;;;;;13.20;11.75;;;8.80;99.90;;;;;;5029541;28;20017;-76
2022/01/16 10:25:47;;;;;;;11.35;10.13;;;8.90;99.90;;;;;;5026162;28;20057;-75
2022/01/16 10:28:22;;;;;;;16.60;9.93;;;9.00;99.90;;;;;;5028182;28;20491;-75
2022/01/16 10:30:53;;;;;;;12.50;9.40;;;9.10;99.90;;;;;;5027947;28;20029;-76
2022/01/16 10:33:21;;;;;;;9.75;7.35;;;9.20;99.90;;;;;;5028730;28;20025;-75
2022/01/16 10:35:48;;;;;;;9.75;6.70;;;9.20;99.90;;;;;;5027979;28;20030;-75
2022/01/16 10:38:19;;;;;;;14.07;5.68;;;9.30;99.90;;;;;;5029338;28;20037;-74
2022/01/16 10:40:50;;;;;;;11.02;5.38;;;9.30;99.90;;;;;;5029205;28;20040;-75
2022/01/16 10:43:21;;;;;;;11.07;4.82;;;9.30;99.90;;;;;;5027859;28;20041;-75
2022/01/16 10:45:51;;;;;;;10.55;5.03;;;9.30;99.90;;;;;;5027793;28;20032;-75
2022/01/16 10:48:23;;;;;;;14.55;3.83;;;9.30;99.90;;;;;;5029026;28;20030;-74
2022/01/16 10:50:50;;;;;;;15.32;2.60;;;9.30;99.90;;;;;;5029009;28;20104;-75
2022/01/16 10:53:19;;;;;;;11.30;2.20;;;9.30;99.90;;;;;;5028549;28;20113;-76
2022/01/16 10:55:51;;;;;;;8.57;2.05;;;9.30;99.90;;;;;;5028340;28;20029;-76
2022/01/16 10:58:18;;;;;;;12.10;2.85;;;9.20;99.90;;;;;;5026950;28;20038;-76
2022/01/16 11:00:59;;;;;;;11.77;1.95;;;9.20;99.90;;;;;;5026940;28;20017;-76
2022/01/16 11:03:27;;;;;;;11.82;2.60;;;9.20;99.90;;;;;;5028611;28;20026;-76
2022/01/16 11:05:54;;;;;;;16.40;2.45;;;9.20;99.90;;;;;;5027158;28;20385;-75
2022/01/16 11:08:22;;;;;;;11.02;1.90;;;9.20;99.90;;;;;;5028513;28;20041;-76
2022/01/16 11:10:50;;;;;;;18.40;2.42;;;9.20;99.90;;;;;;5026980;28;20396;-76
2022/01/16 11:13:19;;;;;;;10.20;2.40;;;9.20;99.90;;;;;;5026670;28;20029;-75
2022/01/16 11:15:50;;;;;;;8.23;2.28;;;9.30;99.90;;;;;;5027874;28;20028;-76
2022/01/16 11:18:17;;;;;;;8.18;2.92;;;9.30;99.60;;;;;;5027996;28;20037;-75
2022/01/16 11:20:52;;;;;;;14.02;2.50;;;9.40;99.50;;;;;;5027986;28;20034;-76
2022/01/16 11:23:30;;;;;;;14.68;2.58;;;9.40;99.20;;;;;;5027497;28;20025;-76
2022/01/16 11:25:58;;;;;;;8.98;2.05;;;9.40;99.10;;;;;;5026512;28;20085;-76
2022/01/16 11:28:24;;;;;;;17.95;2.80;;;9.40;98.90;;;;;;5026686;28;20029;-76
2022/01/16 11:30:52;;;;;;;15.23;2.83;;;9.50;98.80;;;;;;5026375;28;20021;-76
2022/01/16 11:33:19;;;;;;;18.20;2.88;;;9.60;98.70;;;;;;5027850;28;20025;-76
2022/01/16 11:35:51;;;;;;;15.90;2.35;;;9.70;98.40;;;;;;5027675;28;20048;-76
2022/01/16 11:38:20;;;;;;;14.77;2.78;;;9.90;98.30;;;;;;5027458;28;20032;-76
2022/01/16 11:40:49;;;;;;;9.55;1.92;;;10.00;98.00;;;;;;5026071;28;20046;-76
2022/01/16 11:43:20;;;;;;;9.52;1.83;;;10.00;97.80;;;;;;5026346;28;20041;-76
2022/01/16 11:45:55;;;;;;;16.50;2.45;;;10.00;97.40;;;;;;5027020;28;20503;-76
2022/01/16 11:48:55;;;;;;;19.25;2.63;;;10.00;97.20;;;;;;5027900;28;20098;-76
2022/01/16 11:51:35;;;;;;;19.15;2.47;;;10.00;96.80;;;;;;5027642;28;20033;-76
2022/01/16 11:54:01;;;;;;;15.60;2.60;;;10.00;96.80;;;;;;5026945;28;20034;-75
2022/01/16 11:56:42;;;;;;;14.23;3.75;;;10.00;96.80;;;;;;5027020;28;20025;-76
2022/01/16 11:59:16;;;;;;;18.60;3.38;;;10.00;96.50;;;;;;5026965;28;20422;-76
2022/01/16 12:01:57;;;;;;;15.48;2.58;;;10.00;96.40;;;;;;5027483;28;20022;-75
2022/01/16 12:04:29;;;;;;;13.63;2.38;;;10.00;96.30;;;;;;5025896;28;20139;-75
2022/01/16 12:06:55;;;;;;;21.20;3.17;;;10.10;96.10;;;;;;5027305;28;20030;-77
2022/01/16 12:12:16;;;;;;;15.90;2.55;;;10.50;97.00;;;;;;5027031;28;20032;-76
2022/01/16 12:15:01;;;;;;;10.02;2.50;;;11.20;97.70;;;;;;5025452;28;20101;-76
2022/01/16 12:17:43;;;;;;;10.45;2.47;;;12.00;97.70;;;;;;5026768;28;20115;-76
2022/01/16 12:20:15;;;;;;;16.08;2.95;;;12.80;97.40;;;;;;5025528;28;20383;-76
2022/01/16 12:22:57;;;;;;;14.70;2.33;;;13.50;97.20;;;;;;5026925;28;20093;-72
2022/01/16 12:25:28;;;;;;;10.05;2.15;;;14.10;96.50;;;;;;5026719;28;20045;-75
2022/01/16 12:28:01;;;;;;;9.88;2.28;;;14.70;95.90;;;;;;5025678;28;20033;-76
2022/01/16 12:30:38;;;;;;;9.88;2.35;;;15.30;95.00;;;;;;5025857;28;20101;-68
2022/01/16 12:33:09;;;;;;;15.60;2.97;;;15.60;94.20;;;;;;5025206;28;20032;-76
2022/01/16 12:35:41;;;;;;;9.15;2.90;;;15.70;93.40;;;;;;5025095;28;20036;-76
2022/01/16 12:38:11;;;;;;;16.38;2.50;;;15.90;92.50;;;;;;5026666;28;20418;-76
2022/01/16 12:40:38;;;;;;;15.93;3.17;;;16.00;92.30;;;;;;5025090;28;20037;-76
2022/01/16 12:43:09;;;;;;;12.55;3.05;;;16.00;91.40;;;;;;5024386;28;20050;-76
2022/01/16 12:45:42;;;;;;;15.15;3.05;;;16.20;90.80;;;;;;5024753;28;20086;-76
2022/01/16 12:48:08;;;;;;;11.65;2.30;;;16.20;89.10;;;;;;5026066;28;20072;-75
2022/01/16 12:50:36;;;;;;;14.93;2.05;;;16.10;87.20;;;;;;5026269;28;20100;-75
2022/01/16 12:53:02;;;;;;;11.43;2.50;;;15.70;84.70;;;;;;5026531;28;20036;-76
2022/01/16 12:55:29;;;;;;;14.88;3.08;;;15.20;83.20;;;;;;5026878;28;20068;-76
2022/01/16 12:58:14;;;;;;;13.35;2.22;;;14.90;82.70;;;;;;5030173;28;20037;-76
2022/01/16 13:00:59;;;;;;;11.25;2.33;;;14.40;81.50;;;;;;5030322;28;20543;-76
2022/01/16 13:03:26;;;;;;;15.25;3.25;;;13.90;81.00;;;;;;5030076;28;20629;-76
2022/01/16 13:05:52;;;;;;;12.25;3.67;;;13.50;81.50;;;;;;5029350;28;20080;-75
2022/01/16 13:08:18;;;;;;;19.50;2.97;;;13.10;81.60;;;;;;5030056;28;20056;-76
2022/01/16 13:10:43;;;;;;;20.38;3.42;;;12.70;81.90;;;;;;5012338;28;20060;-76
2022/01/16 13:13:12;;;;;;;15.70;2.70;;;12.50;82.50;;;;;;5028862;28;20033;-76
2022/01/16 13:15:38;;;;;;;14.90;2.47;;;12.40;83.10;;;;;;5029778;28;20438;-75
2022/01/16 13:18:11;;;;;;;26.15;6.10;;;12.50;83.50;;;;;;5028465;28;20060;-76
2022/01/16 13:20:37;;;;;;;14.02;3.30;;;12.50;83.40;;;;;;5029550;28;20365;-76
2022/01/16 13:23:03;;;;;;;17.30;3.63;;;12.50;83.50;;;;;;5028742;28;20073;-74
2022/01/16 13:25:29;;;;;;;10.77;2.70;;;12.50;83.40;;;;;;5028397;28;20424;-76
2022/01/16 13:27:58;;;;;;;16.27;3.30;;;12.40;83.20;;;;;;5030619;28;20036;-76
2022/01/16 13:30:25;;;;;;;18.25;4.28;;;12.20;82.60;;;;;;5028553;28;20028;-76
2022/01/16 13:33:03;;;;;;;16.05;3.53;;;12.00;82.30;;;;;;5029050;28;20026;-76
2022/01/16 13:35:30;;;;;;;16.33;4.28;;;11.70;82.30;;;;;;5028480;28;20056;-75
2022/01/16 13:38:08;;;;;;;20.05;3.63;;;11.50;82.90;;;;;;5028961;28;20060;-75